sensor_id;sensor_type;location;lat;lon;timestamp;P1;durP1;ratioP1;P2;durP2;ratioP2
74670;SDS011;63196;39.564;2.628;2022-12-18T00:00:40;5.30;;;1.80;;
74670;SDS011;63196;39.564;2.628;2022-12-18T00:03:06;4.50;;;1.80;;
74670;SDS011;63196;39.564;2.628;2022-12-18T00:05:31;6.10;;;2.00;;
74670;SDS011;63196;39.564;2.628;2022-12-18T00:07:57;5.40;;;1.60;;
74670;SDS011;63196;39.564;2.628;2022-12-18T00:10:25;5.20;;;1.90;;
74670;SDS011;63196;39.564;2.628;2022-12-18T00:12:52;6.20;;;2.40;;
74670;SDS011;63196;39.564;2.628;2022-12-18T00:15:17;8.30;;;2.60;;
74670;SDS011;63196;39.564;2.628;2022-12-18T00:17:42;8.90;;;3.10;;
74670;SDS011;63196;39.564;2.628;2022-12-18T00:20:08;5.20;;;2.20;;
74670;SDS011;63196;39.564;2.628;2022-12-18T00:22:34;5.90;;;2.30;;
74670;SDS011;63196;39.564;2.628;2022-12-18T00:24:59;6.00;;;2.40;;
74670;SDS011;63196;39.564;2.628;2022-12-18T00:27:25;5.80;;;2.20;;
74670;SDS011;63196;39.564;2.628;2022-12-18T00:29:50;4.80;;;1.80;;
74670;SDS011;63196;39.564;2.628;2022-12-18T00:32:15;4.60;;;1.70;;
74670;SDS011;63196;39.564;2.628;2022-12-18T00:34:41;6.90;;;2.70;;
74670;SDS011;63196;39.564;2.628;2022-12-18T00:37:06;6.50;;;2.00;;
74670;SDS011;63196;39.564;2.628;2022-12-18T00:39:31;4.70;;;2.10;;
74670;SDS011;63196;39.564;2.628;2022-12-18T00:41:57;4.20;;;1.70;;
74670;SDS011;63196;39.564;2.628;2022-12-18T00:44:41;3.90;;;1.60;;
74670;SDS011;63196;39.564;2.628;2022-12-18T00:47:06;5.40;;;2.10;;
74670;SDS011;63196;39.564;2.628;2022-12-18T00:49:31;4.70;;;1.90;;
74670;SDS011;63196;39.564;2.628;2022-12-18T00:51:57;5.00;;;2.40;;
74670;SDS011;63196;39.564;2.628;2022-12-18T00:54:22;5.30;;;2.20;;
74670;SDS011;63196;39.564;2.628;2022-12-18T00:56:48;5.50;;;2.00;;
74670;SDS011;63196;39.564;2.628;2022-12-18T00:59:13;5.10;;;2.50;;
74670;SDS011;63196;39.564;2.628;2022-12-18T01:01:38;5.30;;;2.80;;
74670;SDS011;63196;39.564;2.628;2022-12-18T01:04:04;4.50;;;2.20;;
74670;SDS011;63196;39.564;2.628;2022-12-18T01:06:30;6.80;;;2.60;;
74670;SDS011;63196;39.564;2.628;2022-12-18T01:08:56;5.10;;;2.20;;
74670;SDS011;63196;39.564;2.628;2022-12-18T01:11:22;4.30;;;1.80;;
74670;SDS011;63196;39.564;2.628;2022-12-18T01:13:47;5.10;;;1.60;;
74670;SDS011;63196;39.564;2.628;2022-12-18T01:16:14;4.30;;;1.30;;
74670;SDS011;63196;39.564;2.628;2022-12-18T01:18:39;5.40;;;1.50;;
74670;SDS011;63196;39.564;2.628;2022-12-18T01:21:08;5.90;;;1.60;;
74670;SDS011;63196;39.564;2.628;2022-12-18T01:23:34;6.70;;;1.90;;
74670;SDS011;63196;39.564;2.628;2022-12-18T01:26:03;4.00;;;1.30;;
74670;SDS011;63196;39.564;2.628;2022-12-18T01:28:29;6.00;;;1.50;;
74670;SDS011;63196;39.564;2.628;2022-12-18T01:30:55;6.60;;;1.30;;
74670;SDS011;63196;39.564;2.628;2022-12-18T01:33:20;5.30;;;1.40;;
74670;SDS011;63196;39.564;2.628;2022-12-18T01:35:45;5.90;;;1.70;;
74670;SDS011;63196;39.564;2.628;2022-12-18T01:38:11;4.30;;;1.50;;
74670;SDS011;63196;39.564;2.628;2022-12-18T01:40:36;4.50;;;1.40;;
74670;SDS011;63196;39.564;2.628;2022-12-18T01:43:01;4.40;;;1.50;;
74670;SDS011;63196;39.564;2.628;2022-12-18T01:45:28;3.10;;;1.20;;
74670;SDS011;63196;39.564;2.628;2022-12-18T01:47:55;4.60;;;1.40;;
74670;SDS011;63196;39.564;2.628;2022-12-18T01:50:22;3.80;;;1.50;;
74670;SDS011;63196;39.564;2.628;2022-12-18T01:52:50;3.90;;;1.20;;
74670;SDS011;63196;39.564;2.628;2022-12-18T01:55:17;3.60;;;1.40;;
74670;SDS011;63196;39.564;2.628;2022-12-18T01:57:43;4.30;;;1.00;;
74670;SDS011;63196;39.564;2.628;2022-12-18T02:00:11;3.80;;;1.20;;
74670;SDS011;63196;39.564;2.628;2022-12-18T02:02:37;5.20;;;1.30;;
74670;SDS011;63196;39.564;2.628;2022-12-18T02:05:03;7.20;;;1.50;;
74670;SDS011;63196;39.564;2.628;2022-12-18T02:07:41;4.70;;;1.50;;
74670;SDS011;63196;39.564;2.628;2022-12-18T02:12:45;4.70;;;1.20;;
74670;SDS011;63196;39.564;2.628;2022-12-18T02:15:16;3.40;;;1.20;;
74670;SDS011;63196;39.564;2.628;2022-12-18T02:22:43;4.80;;;1.00;;
74670;SDS011;63196;39.564;2.628;2022-12-18T02:25:37;4.90;;;1.20;;
74670;SDS011;63196;39.564;2.628;2022-12-18T02:27:57;4.50;;;1.40;;
74670;SDS011;63196;39.564;2.628;2022-12-18T02:30:24;5.10;;;1.20;;
74670;SDS011;63196;39.564;2.628;2022-12-18T02:32:50;3.70;;;1.00;;
74670;SDS011;63196;39.564;2.628;2022-12-18T02:35:20;5.10;;;1.40;;
74670;SDS011;63196;39.564;2.628;2022-12-18T02:37:47;4.10;;;1.50;;
74670;SDS011;63196;39.564;2.628;2022-12-18T02:40:13;3.70;;;1.30;;
74670;SDS011;63196;39.564;2.628;2022-12-18T02:42:39;5.00;;;1.30;;
74670;SDS011;63196;39.564;2.628;2022-12-18T02:45:05;3.80;;;1.10;;
74670;SDS011;63196;39.564;2.628;2022-12-18T02:47:31;4.40;;;1.20;;
74670;SDS011;63196;39.564;2.628;2022-12-18T02:52:39;4.30;;;1.20;;
74670;SDS011;63196;39.564;2.628;2022-12-18T03:00:08;4.20;;;0.90;;
74670;SDS011;63196;39.564;2.628;2022-12-18T03:05:06;4.40;;;1.30;;
74670;SDS011;63196;39.564;2.628;2022-12-18T03:07:34;3.20;;;0.90;;
74670;SDS011;63196;39.564;2.628;2022-12-18T03:10:02;3.40;;;1.00;;
74670;SDS011;63196;39.564;2.628;2022-12-18T03:12:29;2.80;;;0.90;;
74670;SDS011;63196;39.564;2.628;2022-12-18T03:15:14;3.50;;;1.00;;
74670;SDS011;63196;39.564;2.628;2022-12-18T03:17:43;4.40;;;1.30;;
74670;SDS011;63196;39.564;2.628;2022-12-18T03:22:35;2.70;;;1.10;;
74670;SDS011;63196;39.564;2.628;2022-12-18T03:25:03;3.90;;;1.10;;
74670;SDS011;63196;39.564;2.628;2022-12-18T03:27:29;3.00;;;0.70;;
74670;SDS011;63196;39.564;2.628;2022-12-18T03:30:00;4.10;;;1.00;;
74670;SDS011;63196;39.564;2.628;2022-12-18T03:32:33;3.90;;;1.00;;
74670;SDS011;63196;39.564;2.628;2022-12-18T03:35:00;3.60;;;1.40;;
74670;SDS011;63196;39.564;2.628;2022-12-18T03:37:27;3.70;;;1.00;;
74670;SDS011;63196;39.564;2.628;2022-12-18T03:39:52;4.00;;;1.40;;
74670;SDS011;63196;39.564;2.628;2022-12-18T03:47:16;3.50;;;1.30;;
74670;SDS011;63196;39.564;2.628;2022-12-18T03:49:47;2.80;;;1.00;;
74670;SDS011;63196;39.564;2.628;2022-12-18T03:54:42;3.60;;;1.00;;
74670;SDS011;63196;39.564;2.628;2022-12-18T03:57:13;5.00;;;1.30;;
74670;SDS011;63196;39.564;2.628;2022-12-18T03:59:39;4.00;;;1.20;;
74670;SDS011;63196;39.564;2.628;2022-12-18T04:02:06;4.30;;;1.10;;
74670;SDS011;63196;39.564;2.628;2022-12-18T04:04:33;5.90;;;1.30;;
74670;SDS011;63196;39.564;2.628;2022-12-18T04:06:59;4.10;;;1.10;;
74670;SDS011;63196;39.564;2.628;2022-12-18T04:09:24;3.90;;;1.30;;
74670;SDS011;63196;39.564;2.628;2022-12-18T04:11:51;3.10;;;1.10;;
74670;SDS011;63196;39.564;2.628;2022-12-18T04:14:17;3.00;;;1.30;;
74670;SDS011;63196;39.564;2.628;2022-12-18T04:16:42;6.20;;;1.20;;
74670;SDS011;63196;39.564;2.628;2022-12-18T04:19:07;4.40;;;1.30;;
74670;SDS011;63196;39.564;2.628;2022-12-18T04:21:33;2.70;;;0.90;;
74670;SDS011;63196;39.564;2.628;2022-12-18T04:23:58;3.00;;;0.90;;
74670;SDS011;63196;39.564;2.628;2022-12-18T04:26:24;2.70;;;1.00;;
74670;SDS011;63196;39.564;2.628;2022-12-18T04:28:49;3.50;;;1.10;;
74670;SDS011;63196;39.564;2.628;2022-12-18T04:31:14;4.10;;;1.20;;
74670;SDS011;63196;39.564;2.628;2022-12-18T04:33:40;6.90;;;1.30;;
74670;SDS011;63196;39.564;2.628;2022-12-18T04:36:05;6.00;;;1.20;;
74670;SDS011;63196;39.564;2.628;2022-12-18T04:38:31;3.60;;;1.20;;
74670;SDS011;63196;39.564;2.628;2022-12-18T04:40:56;3.00;;;1.00;;
74670;SDS011;63196;39.564;2.628;2022-12-18T04:43:22;4.40;;;1.00;;
74670;SDS011;63196;39.564;2.628;2022-12-18T04:45:47;2.80;;;0.90;;
74670;SDS011;63196;39.564;2.628;2022-12-18T04:48:12;2.90;;;1.00;;
74670;SDS011;63196;39.564;2.628;2022-12-18T04:50:38;3.00;;;0.90;;
74670;SDS011;63196;39.564;2.628;2022-12-18T04:53:03;4.40;;;0.90;;
74670;SDS011;63196;39.564;2.628;2022-12-18T04:55:29;4.50;;;0.90;;
74670;SDS011;63196;39.564;2.628;2022-12-18T04:57:54;3.70;;;1.10;;
74670;SDS011;63196;39.564;2.628;2022-12-18T05:00:20;2.60;;;0.80;;
74670;SDS011;63196;39.564;2.628;2022-12-18T05:02:45;3.50;;;1.30;;
74670;SDS011;63196;39.564;2.628;2022-12-18T05:05:11;4.20;;;0.90;;
74670;SDS011;63196;39.564;2.628;2022-12-18T05:07:36;3.00;;;0.90;;
74670;SDS011;63196;39.564;2.628;2022-12-18T05:10:01;5.30;;;0.90;;
74670;SDS011;63196;39.564;2.628;2022-12-18T05:12:27;3.50;;;1.30;;
74670;SDS011;63196;39.564;2.628;2022-12-18T05:14:52;3.70;;;1.10;;
74670;SDS011;63196;39.564;2.628;2022-12-18T05:17:18;2.70;;;0.90;;
74670;SDS011;63196;39.564;2.628;2022-12-18T05:19:43;3.10;;;1.00;;
74670;SDS011;63196;39.564;2.628;2022-12-18T05:22:08;4.50;;;1.20;;
74670;SDS011;63196;39.564;2.628;2022-12-18T05:24:34;5.10;;;1.10;;
74670;SDS011;63196;39.564;2.628;2022-12-18T05:26:59;4.40;;;1.00;;
74670;SDS011;63196;39.564;2.628;2022-12-18T05:29:25;4.70;;;1.00;;
74670;SDS011;63196;39.564;2.628;2022-12-18T05:31:50;3.30;;;0.80;;
74670;SDS011;63196;39.564;2.628;2022-12-18T05:34:15;3.20;;;1.00;;
74670;SDS011;63196;39.564;2.628;2022-12-18T05:36:41;3.30;;;1.00;;
74670;SDS011;63196;39.564;2.628;2022-12-18T05:39:06;4.00;;;1.00;;
74670;SDS011;63196;39.564;2.628;2022-12-18T05:41:32;2.90;;;1.00;;
74670;SDS011;63196;39.564;2.628;2022-12-18T05:43:57;3.30;;;1.00;;
74670;SDS011;63196;39.564;2.628;2022-12-18T05:46:23;4.40;;;1.00;;
74670;SDS011;63196;39.564;2.628;2022-12-18T05:48:49;2.50;;;0.80;;
74670;SDS011;63196;39.564;2.628;2022-12-18T05:51:16;3.60;;;1.10;;
74670;SDS011;63196;39.564;2.628;2022-12-18T05:53:42;4.50;;;1.20;;
74670;SDS011;63196;39.564;2.628;2022-12-18T05:56:12;3.70;;;1.00;;
74670;SDS011;63196;39.564;2.628;2022-12-18T05:58:37;3.30;;;0.90;;
74670;SDS011;63196;39.564;2.628;2022-12-18T06:01:07;4.10;;;1.10;;
74670;SDS011;63196;39.564;2.628;2022-12-18T06:03:32;3.00;;;1.00;;
74670;SDS011;63196;39.564;2.628;2022-12-18T06:05:57;3.90;;;0.90;;
74670;SDS011;63196;39.564;2.628;2022-12-18T06:08:23;3.90;;;1.20;;
74670;SDS011;63196;39.564;2.628;2022-12-18T06:10:51;4.20;;;1.00;;
74670;SDS011;63196;39.564;2.628;2022-12-18T06:13:18;3.60;;;0.90;;
74670;SDS011;63196;39.564;2.628;2022-12-18T06:15:43;4.30;;;0.90;;
74670;SDS011;63196;39.564;2.628;2022-12-18T06:18:08;2.70;;;0.90;;
74670;SDS011;63196;39.564;2.628;2022-12-18T06:20:34;3.90;;;1.30;;
74670;SDS011;63196;39.564;2.628;2022-12-18T06:23:01;2.60;;;0.90;;
74670;SDS011;63196;39.564;2.628;2022-12-18T06:25:27;2.80;;;0.90;;
74670;SDS011;63196;39.564;2.628;2022-12-18T06:27:52;3.00;;;1.00;;
74670;SDS011;63196;39.564;2.628;2022-12-18T06:30:17;4.70;;;1.10;;
74670;SDS011;63196;39.564;2.628;2022-12-18T06:32:43;4.40;;;1.80;;
74670;SDS011;63196;39.564;2.628;2022-12-18T06:35:08;4.40;;;2.10;;
74670;SDS011;63196;39.564;2.628;2022-12-18T06:37:34;7.70;;;2.90;;
74670;SDS011;63196;39.564;2.628;2022-12-18T06:39:59;4.40;;;1.90;;
74670;SDS011;63196;39.564;2.628;2022-12-18T06:42:26;4.90;;;1.40;;
74670;SDS011;63196;39.564;2.628;2022-12-18T06:44:51;3.60;;;1.20;;
74670;SDS011;63196;39.564;2.628;2022-12-18T06:47:17;3.40;;;1.40;;
74670;SDS011;63196;39.564;2.628;2022-12-18T06:49:43;4.00;;;1.20;;
74670;SDS011;63196;39.564;2.628;2022-12-18T06:52:08;3.20;;;1.10;;
74670;SDS011;63196;39.564;2.628;2022-12-18T06:54:33;4.40;;;1.10;;
74670;SDS011;63196;39.564;2.628;2022-12-18T06:56:59;5.00;;;1.30;;
74670;SDS011;63196;39.564;2.628;2022-12-18T06:59:24;5.60;;;1.20;;
74670;SDS011;63196;39.564;2.628;2022-12-18T07:01:50;3.80;;;1.20;;
74670;SDS011;63196;39.564;2.628;2022-12-18T07:04:15;5.70;;;1.40;;
74670;SDS011;63196;39.564;2.628;2022-12-18T07:06:40;3.40;;;1.00;;
74670;SDS011;63196;39.564;2.628;2022-12-18T07:09:06;5.60;;;1.40;;
74670;SDS011;63196;39.564;2.628;2022-12-18T07:11:34;4.30;;;1.40;;
74670;SDS011;63196;39.564;2.628;2022-12-18T07:14:00;4.70;;;1.00;;
74670;SDS011;63196;39.564;2.628;2022-12-18T07:16:25;4.90;;;1.20;;
74670;SDS011;63196;39.564;2.628;2022-12-18T07:18:51;5.20;;;1.20;;
74670;SDS011;63196;39.564;2.628;2022-12-18T07:21:17;2.50;;;0.80;;
74670;SDS011;63196;39.564;2.628;2022-12-18T07:23:43;5.50;;;1.40;;
74670;SDS011;63196;39.564;2.628;2022-12-18T07:26:12;3.30;;;1.10;;
74670;SDS011;63196;39.564;2.628;2022-12-18T07:28:38;2.90;;;0.90;;
74670;SDS011;63196;39.564;2.628;2022-12-18T07:31:05;3.70;;;1.30;;
74670;SDS011;63196;39.564;2.628;2022-12-18T07:33:31;4.50;;;1.20;;
74670;SDS011;63196;39.564;2.628;2022-12-18T07:35:58;5.50;;;1.20;;
74670;SDS011;63196;39.564;2.628;2022-12-18T07:38:24;4.40;;;1.10;;
74670;SDS011;63196;39.564;2.628;2022-12-18T07:40:49;4.00;;;1.10;;
74670;SDS011;63196;39.564;2.628;2022-12-18T07:43:14;4.30;;;1.50;;
74670;SDS011;63196;39.564;2.628;2022-12-18T07:45:40;3.90;;;1.20;;
74670;SDS011;63196;39.564;2.628;2022-12-18T07:48:05;3.70;;;1.10;;
74670;SDS011;63196;39.564;2.628;2022-12-18T07:50:30;3.70;;;0.80;;
74670;SDS011;63196;39.564;2.628;2022-12-18T07:52:56;3.40;;;1.10;;
74670;SDS011;63196;39.564;2.628;2022-12-18T07:55:21;3.30;;;1.00;;
74670;SDS011;63196;39.564;2.628;2022-12-18T07:57:46;3.30;;;1.00;;
74670;SDS011;63196;39.564;2.628;2022-12-18T08:00:12;4.30;;;1.20;;
74670;SDS011;63196;39.564;2.628;2022-12-18T08:02:38;4.00;;;1.10;;
74670;SDS011;63196;39.564;2.628;2022-12-18T08:05:03;3.60;;;1.10;;
74670;SDS011;63196;39.564;2.628;2022-12-18T08:07:28;2.90;;;1.00;;
74670;SDS011;63196;39.564;2.628;2022-12-18T08:09:54;3.20;;;1.00;;
74670;SDS011;63196;39.564;2.628;2022-12-18T08:12:19;2.90;;;1.10;;
74670;SDS011;63196;39.564;2.628;2022-12-18T08:14:44;4.10;;;1.00;;
74670;SDS011;63196;39.564;2.628;2022-12-18T08:17:10;4.40;;;1.00;;
74670;SDS011;63196;39.564;2.628;2022-12-18T08:19:35;3.10;;;1.00;;
74670;SDS011;63196;39.564;2.628;2022-12-18T08:22:01;3.00;;;1.30;;
74670;SDS011;63196;39.564;2.628;2022-12-18T08:24:26;3.20;;;1.40;;
74670;SDS011;63196;39.564;2.628;2022-12-18T08:26:51;3.50;;;1.30;;
74670;SDS011;63196;39.564;2.628;2022-12-18T08:29:17;3.50;;;1.10;;
74670;SDS011;63196;39.564;2.628;2022-12-18T08:31:42;3.80;;;1.10;;
74670;SDS011;63196;39.564;2.628;2022-12-18T08:34:08;3.30;;;1.00;;
74670;SDS011;63196;39.564;2.628;2022-12-18T08:36:33;4.20;;;1.30;;
74670;SDS011;63196;39.564;2.628;2022-12-18T08:38:58;3.10;;;1.20;;
74670;SDS011;63196;39.564;2.628;2022-12-18T08:41:24;4.30;;;1.40;;
74670;SDS011;63196;39.564;2.628;2022-12-18T08:43:49;3.30;;;1.00;;
74670;SDS011;63196;39.564;2.628;2022-12-18T08:46:36;4.00;;;1.10;;
74670;SDS011;63196;39.564;2.628;2022-12-18T08:49:02;3.50;;;1.40;;
74670;SDS011;63196;39.564;2.628;2022-12-18T08:51:28;3.50;;;1.20;;
74670;SDS011;63196;39.564;2.628;2022-12-18T08:53:53;5.70;;;2.30;;
74670;SDS011;63196;39.564;2.628;2022-12-18T08:56:19;5.40;;;2.10;;
74670;SDS011;63196;39.564;2.628;2022-12-18T08:58:44;4.80;;;2.00;;
74670;SDS011;63196;39.564;2.628;2022-12-18T09:01:10;4.30;;;2.00;;
74670;SDS011;63196;39.564;2.628;2022-12-18T09:03:36;5.50;;;2.30;;
74670;SDS011;63196;39.564;2.628;2022-12-18T09:06:02;5.30;;;2.10;;
74670;SDS011;63196;39.564;2.628;2022-12-18T09:08:28;3.70;;;1.50;;
74670;SDS011;63196;39.564;2.628;2022-12-18T09:10:53;4.20;;;1.70;;
74670;SDS011;63196;39.564;2.628;2022-12-18T09:13:20;4.50;;;1.30;;
74670;SDS011;63196;39.564;2.628;2022-12-18T09:15:47;3.40;;;1.30;;
74670;SDS011;63196;39.564;2.628;2022-12-18T09:18:13;4.50;;;1.40;;
74670;SDS011;63196;39.564;2.628;2022-12-18T09:20:39;5.70;;;1.60;;
74670;SDS011;63196;39.564;2.628;2022-12-18T09:23:05;4.30;;;1.40;;
74670;SDS011;63196;39.564;2.628;2022-12-18T09:25:30;6.20;;;2.70;;
74670;SDS011;63196;39.564;2.628;2022-12-18T09:28:11;3.90;;;1.40;;
74670;SDS011;63196;39.564;2.628;2022-12-18T09:30:38;3.90;;;1.60;;
74670;SDS011;63196;39.564;2.628;2022-12-18T09:33:03;4.30;;;1.80;;
74670;SDS011;63196;39.564;2.628;2022-12-18T09:35:29;6.30;;;1.70;;
74670;SDS011;63196;39.564;2.628;2022-12-18T09:37:54;3.90;;;1.50;;
74670;SDS011;63196;39.564;2.628;2022-12-18T09:40:21;4.60;;;1.70;;
74670;SDS011;63196;39.564;2.628;2022-12-18T09:42:48;3.80;;;1.60;;
74670;SDS011;63196;39.564;2.628;2022-12-18T09:45:15;4.90;;;1.90;;
74670;SDS011;63196;39.564;2.628;2022-12-18T09:47:41;6.60;;;1.70;;
74670;SDS011;63196;39.564;2.628;2022-12-18T09:50:28;4.10;;;1.70;;
74670;SDS011;63196;39.564;2.628;2022-12-18T09:52:56;4.80;;;1.80;;
74670;SDS011;63196;39.564;2.628;2022-12-18T09:55:24;5.10;;;1.60;;
74670;SDS011;63196;39.564;2.628;2022-12-18T09:57:51;6.30;;;1.70;;
74670;SDS011;63196;39.564;2.628;2022-12-18T10:02:43;4.60;;;1.70;;
74670;SDS011;63196;39.564;2.628;2022-12-18T10:05:52;4.20;;;1.50;;
74670;SDS011;63196;39.564;2.628;2022-12-18T10:08:16;4.40;;;1.70;;
74670;SDS011;63196;39.564;2.628;2022-12-18T10:10:48;6.70;;;1.80;;
74670;SDS011;63196;39.564;2.628;2022-12-18T10:16:17;4.40;;;1.90;;
74670;SDS011;63196;39.564;2.628;2022-12-18T10:21:51;5.50;;;2.30;;
74670;SDS011;63196;39.564;2.628;2022-12-18T10:27:37;5.70;;;2.10;;
74670;SDS011;63196;39.564;2.628;2022-12-18T10:29:55;5.80;;;2.00;;
74670;SDS011;63196;39.564;2.628;2022-12-18T10:32:22;6.20;;;2.50;;
74670;SDS011;63196;39.564;2.628;2022-12-18T10:34:48;4.60;;;2.00;;
74670;SDS011;63196;39.564;2.628;2022-12-18T10:37:15;5.60;;;2.00;;
74670;SDS011;63196;39.564;2.628;2022-12-18T10:39:42;4.40;;;1.80;;
74670;SDS011;63196;39.564;2.628;2022-12-18T10:42:13;5.30;;;2.40;;
74670;SDS011;63196;39.564;2.628;2022-12-18T10:44:41;6.10;;;2.20;;
74670;SDS011;63196;39.564;2.628;2022-12-18T10:47:06;7.40;;;2.30;;
74670;SDS011;63196;39.564;2.628;2022-12-18T10:49:36;6.00;;;2.40;;
74670;SDS011;63196;39.564;2.628;2022-12-18T10:54:30;4.90;;;2.10;;
74670;SDS011;63196;39.564;2.628;2022-12-18T10:57:13;5.20;;;1.70;;
74670;SDS011;63196;39.564;2.628;2022-12-18T10:59:50;4.50;;;1.70;;
74670;SDS011;63196;39.564;2.628;2022-12-18T11:02:49;4.30;;;1.60;;
74670;SDS011;63196;39.564;2.628;2022-12-18T11:07:49;6.00;;;1.90;;
74670;SDS011;63196;39.564;2.628;2022-12-18T11:10:18;4.10;;;1.90;;
74670;SDS011;63196;39.564;2.628;2022-12-18T11:12:44;5.30;;;2.20;;
74670;SDS011;63196;39.564;2.628;2022-12-18T11:15:15;3.70;;;1.70;;
74670;SDS011;63196;39.564;2.628;2022-12-18T11:17:40;4.40;;;1.50;;
74670;SDS011;63196;39.564;2.628;2022-12-18T11:20:18;4.60;;;1.40;;
74670;SDS011;63196;39.564;2.628;2022-12-18T11:22:45;3.60;;;1.40;;
74670;SDS011;63196;39.564;2.628;2022-12-18T11:25:19;4.10;;;1.30;;
74670;SDS011;63196;39.564;2.628;2022-12-18T11:27:52;3.80;;;1.20;;
74670;SDS011;63196;39.564;2.628;2022-12-18T11:30:23;3.60;;;1.20;;
74670;SDS011;63196;39.564;2.628;2022-12-18T11:32:49;4.50;;;1.30;;
74670;SDS011;63196;39.564;2.628;2022-12-18T11:35:18;4.60;;;1.10;;
74670;SDS011;63196;39.564;2.628;2022-12-18T11:37:49;3.60;;;1.00;;
74670;SDS011;63196;39.564;2.628;2022-12-18T11:40:17;5.40;;;1.30;;
74670;SDS011;63196;39.564;2.628;2022-12-18T11:45:28;3.90;;;1.00;;
74670;SDS011;63196;39.564;2.628;2022-12-18T11:48:02;4.20;;;1.30;;
74670;SDS011;63196;39.564;2.628;2022-12-18T11:50:36;3.90;;;1.10;;
74670;SDS011;63196;39.564;2.628;2022-12-18T11:53:10;3.80;;;1.10;;
74670;SDS011;63196;39.564;2.628;2022-12-18T11:58:45;2.80;;;1.00;;
74670;SDS011;63196;39.564;2.628;2022-12-18T12:01:21;4.10;;;1.10;;
74670;SDS011;63196;39.564;2.628;2022-12-18T12:03:52;3.40;;;1.20;;
74670;SDS011;63196;39.564;2.628;2022-12-18T12:06:22;3.20;;;1.00;;
74670;SDS011;63196;39.564;2.628;2022-12-18T12:09:08;3.40;;;1.00;;
74670;SDS011;63196;39.564;2.628;2022-12-18T12:11:50;3.40;;;1.10;;
74670;SDS011;63196;39.564;2.628;2022-12-18T12:24:33;3.50;;;1.00;;
74670;SDS011;63196;39.564;2.628;2022-12-18T12:32:30;3.20;;;1.00;;
74670;SDS011;63196;39.564;2.628;2022-12-18T12:35:07;3.90;;;1.20;;
74670;SDS011;63196;39.564;2.628;2022-12-18T12:40:02;4.40;;;1.00;;
74670;SDS011;63196;39.564;2.628;2022-12-18T12:45:16;4.40;;;1.10;;
74670;SDS011;63196;39.564;2.628;2022-12-18T12:47:43;3.10;;;1.10;;
74670;SDS011;63196;39.564;2.628;2022-12-18T12:50:14;3.60;;;1.00;;
74670;SDS011;63196;39.564;2.628;2022-12-18T12:52:42;3.80;;;1.10;;
74670;SDS011;63196;39.564;2.628;2022-12-18T12:55:13;3.50;;;1.10;;
74670;SDS011;63196;39.564;2.628;2022-12-18T12:57:41;5.00;;;1.20;;
74670;SDS011;63196;39.564;2.628;2022-12-18T13:02:58;3.30;;;1.00;;
74670;SDS011;63196;39.564;2.628;2022-12-18T13:07:53;3.90;;;1.20;;
74670;SDS011;63196;39.564;2.628;2022-12-18T13:15:47;3.60;;;1.20;;
74670;SDS011;63196;39.564;2.628;2022-12-18T13:18:18;3.40;;;1.10;;
74670;SDS011;63196;39.564;2.628;2022-12-18T13:20:45;3.90;;;1.10;;
74670;SDS011;63196;39.564;2.628;2022-12-18T13:25:37;3.70;;;1.10;;
74670;SDS011;63196;39.564;2.628;2022-12-18T13:45:45;3.20;;;1.20;;
74670;SDS011;63196;39.564;2.628;2022-12-18T13:48:21;3.50;;;1.20;;
74670;SDS011;63196;39.564;2.628;2022-12-18T13:50:56;4.20;;;1.30;;
74670;SDS011;63196;39.564;2.628;2022-12-18T13:53:23;4.80;;;1.40;;
74670;SDS011;63196;39.564;2.628;2022-12-18T13:55:49;4.90;;;1.40;;
74670;SDS011;63196;39.564;2.628;2022-12-18T13:58:16;3.30;;;1.20;;
74670;SDS011;63196;39.564;2.628;2022-12-18T14:00:41;3.40;;;1.40;;
74670;SDS011;63196;39.564;2.628;2022-12-18T14:03:17;5.00;;;1.50;;
74670;SDS011;63196;39.564;2.628;2022-12-18T14:05:43;3.10;;;1.20;;
74670;SDS011;63196;39.564;2.628;2022-12-18T14:08:15;6.40;;;1.50;;
74670;SDS011;63196;39.564;2.628;2022-12-18T14:10:45;4.10;;;1.60;;
74670;SDS011;63196;39.564;2.628;2022-12-18T14:13:11;5.00;;;1.50;;
74670;SDS011;63196;39.564;2.628;2022-12-18T14:15:43;4.90;;;1.80;;
74670;SDS011;63196;39.564;2.628;2022-12-18T14:18:26;3.40;;;1.30;;
74670;SDS011;63196;39.564;2.628;2022-12-18T14:21:02;4.80;;;1.40;;
74670;SDS011;63196;39.564;2.628;2022-12-18T14:23:30;4.60;;;1.40;;
74670;SDS011;63196;39.564;2.628;2022-12-18T14:25:55;5.40;;;2.20;;
74670;SDS011;63196;39.564;2.628;2022-12-18T14:28:21;3.50;;;1.30;;
74670;SDS011;63196;39.564;2.628;2022-12-18T14:30:47;3.80;;;1.40;;
74670;SDS011;63196;39.564;2.628;2022-12-18T14:35:39;3.80;;;1.40;;
74670;SDS011;63196;39.564;2.628;2022-12-18T14:38:24;3.70;;;1.40;;
74670;SDS011;63196;39.564;2.628;2022-12-18T14:41:04;3.30;;;1.30;;
74670;SDS011;63196;39.564;2.628;2022-12-18T14:43:31;5.20;;;1.80;;
74670;SDS011;63196;39.564;2.628;2022-12-18T14:45:57;3.80;;;1.70;;
74670;SDS011;63196;39.564;2.628;2022-12-18T14:48:36;4.10;;;1.70;;
74670;SDS011;63196;39.564;2.628;2022-12-18T14:53:44;4.40;;;1.60;;
74670;SDS011;63196;39.564;2.628;2022-12-18T14:56:17;5.90;;;1.50;;
74670;SDS011;63196;39.564;2.628;2022-12-18T14:58:44;4.40;;;1.70;;
74670;SDS011;63196;39.564;2.628;2022-12-18T15:01:17;4.70;;;1.70;;
74670;SDS011;63196;39.564;2.628;2022-12-18T15:03:43;5.20;;;1.60;;
74670;SDS011;63196;39.564;2.628;2022-12-18T15:06:15;3.70;;;1.20;;
74670;SDS011;63196;39.564;2.628;2022-12-18T15:08:41;4.80;;;1.40;;
74670;SDS011;63196;39.564;2.628;2022-12-18T15:13:51;4.00;;;1.50;;
74670;SDS011;63196;39.564;2.628;2022-12-18T15:16:16;5.10;;;1.80;;
74670;SDS011;63196;39.564;2.628;2022-12-18T15:18:42;4.10;;;1.50;;
74670;SDS011;63196;39.564;2.628;2022-12-18T15:21:10;4.60;;;1.80;;
74670;SDS011;63196;39.564;2.628;2022-12-18T15:23:49;6.10;;;1.70;;
74670;SDS011;63196;39.564;2.628;2022-12-18T15:26:16;4.60;;;1.60;;
74670;SDS011;63196;39.564;2.628;2022-12-18T15:33:43;5.90;;;1.70;;
74670;SDS011;63196;39.564;2.628;2022-12-18T15:36:15;5.40;;;1.50;;
74670;SDS011;63196;39.564;2.628;2022-12-18T15:38:41;4.10;;;1.60;;
74670;SDS011;63196;39.564;2.628;2022-12-18T15:41:17;4.40;;;1.70;;
74670;SDS011;63196;39.564;2.628;2022-12-18T15:43:43;5.20;;;1.70;;
74670;SDS011;63196;39.564;2.628;2022-12-18T15:46:12;5.10;;;1.70;;
74670;SDS011;63196;39.564;2.628;2022-12-18T15:48:39;4.00;;;1.70;;
74670;SDS011;63196;39.564;2.628;2022-12-18T15:51:08;4.90;;;1.50;;
74670;SDS011;63196;39.564;2.628;2022-12-18T15:53:36;5.20;;;1.80;;
74670;SDS011;63196;39.564;2.628;2022-12-18T15:56:01;5.00;;;1.30;;
74670;SDS011;63196;39.564;2.628;2022-12-18T15:58:45;5.50;;;2.90;;
74670;SDS011;63196;39.564;2.628;2022-12-18T16:01:11;4.90;;;1.50;;
74670;SDS011;63196;39.564;2.628;2022-12-18T16:03:37;4.80;;;2.20;;
74670;SDS011;63196;39.564;2.628;2022-12-18T16:06:02;3.70;;;1.60;;
74670;SDS011;63196;39.564;2.628;2022-12-18T16:08:28;4.10;;;1.40;;
74670;SDS011;63196;39.564;2.628;2022-12-18T16:10:55;3.70;;;1.60;;
74670;SDS011;63196;39.564;2.628;2022-12-18T16:13:20;6.20;;;1.90;;
74670;SDS011;63196;39.564;2.628;2022-12-18T16:15:46;3.90;;;1.60;;
74670;SDS011;63196;39.564;2.628;2022-12-18T16:18:11;4.80;;;2.30;;
74670;SDS011;63196;39.564;2.628;2022-12-18T16:20:37;4.30;;;1.60;;
74670;SDS011;63196;39.564;2.628;2022-12-18T16:23:03;4.70;;;1.80;;
74670;SDS011;63196;39.564;2.628;2022-12-18T16:25:28;6.20;;;2.30;;
74670;SDS011;63196;39.564;2.628;2022-12-18T16:27:54;4.90;;;2.00;;
74670;SDS011;63196;39.564;2.628;2022-12-18T16:30:24;3.60;;;1.50;;
74670;SDS011;63196;39.564;2.628;2022-12-18T16:32:52;4.10;;;1.50;;
74670;SDS011;63196;39.564;2.628;2022-12-18T16:35:17;4.50;;;2.00;;
74670;SDS011;63196;39.564;2.628;2022-12-18T16:37:43;4.30;;;2.00;;
74670;SDS011;63196;39.564;2.628;2022-12-18T16:40:09;5.40;;;2.40;;
74670;SDS011;63196;39.564;2.628;2022-12-18T16:42:36;6.00;;;2.80;;
74670;SDS011;63196;39.564;2.628;2022-12-18T16:45:01;7.30;;;3.50;;